Time;durP1;ratioP1;P1;durP2;ratioP2;P2;SDS_P1;SDS_P2;PMS_P1;PMS_P2;Temp;Humidity;BMP_temperature;BMP_pressure;BME280_temperature;BME280_humidity;BME280_pressure;Samples;Min_cycle;Max_cycle;Signal;HPM_P1;HPM_P2
2021/01/29 00:02:13;;;;;;;21.30;15.00;;;;;;;2.57;95.60;97169.38;5016825;28;20033;-62
2021/01/29 00:04:40;;;;;;;28.03;17.13;;;;;;;2.62;95.55;97164.25;5017681;28;20041;-62
2021/01/29 00:07:07;;;;;;;25.80;15.83;;;;;;;2.80;95.62;97170.81;5015833;28;20029;-62
2021/01/29 00:09:32;;;;;;;22.67;15.87;;;;;;;2.92;96.01;97176.56;5017509;28;20025;-62
2021/01/29 00:11:58;;;;;;;25.37;16.13;;;;;;;2.93;96.05;97172.31;5016647;28;20052;-62
2021/01/29 00:14:23;;;;;;;22.53;14.47;;;;;;;2.93;95.71;97160.47;5016053;28;20038;-62
2021/01/29 00:16:48;;;;;;;23.10;15.37;;;;;;;2.96;96.21;97174.81;5017501;28;20054;-62
2021/01/29 00:19:14;;;;;;;22.80;14.83;;;;;;;3.02;96.21;97177.25;5016566;28;20021;-62
2021/01/29 00:21:39;;;;;;;23.27;14.17;;;;;;;3.01;95.96;97178.13;5017788;28;20084;-62
2021/01/29 00:24:05;;;;;;;28.20;14.10;;;;;;;2.99;95.66;97182.34;5016275;28;20104;-62
2021/01/29 00:26:30;;;;;;;23.67;14.73;;;;;;;2.98;95.76;97190.81;5015960;28;20030;-62
2021/01/29 00:28:56;;;;;;;19.83;13.70;;;;;;;3.06;95.81;97187.31;5015638;28;20036;-62
2021/01/29 00:31:21;;;;;;;22.73;14.30;;;;;;;3.09;96.24;97191.53;5015104;28;20030;-62
2021/01/29 00:33:46;;;;;;;23.17;15.00;;;;;;;3.09;96.19;97199.13;5016092;28;20029;-62
2021/01/29 00:36:12;;;;;;;19.27;13.20;;;;;;;3.13;95.92;97195.69;5014867;28;20067;-62
2021/01/29 00:38:38;;;;;;;23.20;15.93;;;;;;;3.10;96.09;97200.78;5014936;28;20014;-62
2021/01/29 00:41:03;;;;;;;23.63;15.10;;;;;;;3.08;95.56;97200.81;5016566;28;20048;-62
2021/01/29 00:43:29;;;;;;;21.73;13.97;;;;;;;3.03;95.66;97220.28;5015350;28;20038;-62
2021/01/29 00:45:54;;;;;;;20.90;13.83;;;;;;;2.99;95.14;97205.13;5016927;28;20032;-62
2021/01/29 00:48:19;;;;;;;23.00;13.27;;;;;;;2.96;95.01;97208.56;5016172;28;20034;-62
2021/01/29 00:50:45;;;;;;;20.73;13.57;;;;;;;2.93;94.80;97222.94;5016379;28;20033;-62
2021/01/29 00:53:11;;;;;;;24.37;16.13;;;;;;;2.85;94.93;97227.22;5016096;28;20037;-62
2021/01/29 00:55:37;;;;;;;23.70;13.90;;;;;;;2.86;94.88;97216.25;5016856;28;20164;-62
2021/01/29 00:58:02;;;;;;;25.83;16.17;;;;;;;2.83;95.22;97211.25;5016811;28;20026;-62
2021/01/29 01:00:28;;;;;;;21.30;13.07;;;;;;;2.79;95.23;97225.63;5015856;28;20025;-62
2021/01/29 01:02:53;;;;;;;25.43;16.67;;;;;;;2.78;95.33;97223.94;5012049;28;20382;-62
2021/01/29 01:05:21;;;;;;;26.33;14.30;;;;;;;2.86;95.41;97221.31;4997647;28;20439;-62
2021/01/29 01:07:47;;;;;;;22.93;14.33;;;;;;;2.85;95.53;97217.09;4994778;28;20121;-62
2021/01/29 01:10:13;;;;;;;20.63;13.90;;;;;;;2.90;95.68;97212.84;4994963;28;20062;-62
2021/01/29 01:12:39;;;;;;;23.03;15.27;;;;;;;2.85;95.57;97219.63;5003615;28;20030;-62
2021/01/29 01:15:16;;;;;;;22.57;14.23;;;;;;;2.85;94.90;97199.41;5014713;28;20022;-62
2021/01/29 01:17:42;;;;;;;23.30;13.57;;;;;;;2.86;95.29;97219.63;5016714;28;20036;-61
2021/01/29 01:20:11;;;;;;;19.03;12.27;;;;;;;2.95;95.76;97221.22;5015491;28;20498;-62
2021/01/29 01:22:36;;;;;;;20.50;14.80;;;;;;;2.93;95.75;97217.88;5015017;28;20104;-62
2021/01/29 01:25:03;;;;;;;19.70;12.80;;;;;;;2.95;95.60;97219.53;5016302;28;20526;-61
2021/01/29 01:27:28;;;;;;;26.50;14.47;;;;;;;2.87;95.45;97241.56;5014846;28;20048;-62
2021/01/29 01:29:54;;;;;;;21.00;12.67;;;;;;;2.87;94.93;97236.50;5015696;28;20021;-62
2021/01/29 01:32:19;;;;;;;25.47;14.30;;;;;;;2.89;95.64;97233.94;5015643;28;20109;-62
2021/01/29 01:34:44;;;;;;;23.03;14.63;;;;;;;2.89;95.36;97241.53;5016003;28;20054;-62
2021/01/29 01:37:10;;;;;;;20.73;13.17;;;;;;;2.91;96.04;97242.38;5015772;28;20037;-62
2021/01/29 01:39:35;;;;;;;23.67;13.37;;;;;;;2.91;95.56;97238.13;5014471;28;20033;-62
2021/01/29 01:42:01;;;;;;;24.70;15.13;;;;;;;2.83;95.55;97236.56;5013163;28;20026;-62
2021/01/29 01:44:38;;;;;;;22.77;15.13;;;;;;;2.90;95.90;97233.09;5014666;28;20034;-61
2021/01/29 01:47:35;;;;;;;25.30;14.80;;;;;;;2.90;96.27;97215.38;5014532;28;20402;-62
2021/01/29 01:50:03;;;;;;;;;;;;;;;2.97;95.96;97222.06;4996671;28;20026;-61
2021/01/29 01:52:35;;;;;;;21.40;13.60;;;;;;;2.88;95.79;97235.66;4995308;28;19917;-61
2021/01/29 01:55:08;;;;;;;24.03;15.23;;;;;;;2.95;95.69;97246.53;5005902;28;20208;-61
2021/01/29 01:57:35;;;;;;;28.17;15.47;;;;;;;2.95;96.20;97246.53;5014728;28;20030;-62
2021/01/29 02:00:13;;;;;;;23.23;14.47;;;;;;;3.01;96.05;97232.09;5013788;28;20462;-62
2021/01/29 02:02:41;;;;;;;23.00;13.33;;;;;;;2.96;95.75;97223.75;5014976;28;20022;-62
2021/01/29 02:05:14;;;;;;;23.43;13.60;;;;;;;3.00;95.76;97232.97;5014970;28;20037;-62
2021/01/29 02:07:49;;;;;;;20.70;13.40;;;;;;;3.01;96.05;97236.34;5014155;28;20125;-62
2021/01/29 02:10:15;;;;;;;16.23;9.80;;;;;;;2.96;95.75;97233.03;5014803;28;20449;-62
2021/01/29 02:12:40;;;;;;;19.77;12.60;;;;;;;2.93;95.83;97238.13;5011744;28;20040;-63
2021/01/29 02:15:14;;;;;;;19.67;12.50;;;;;;;3.00;95.52;97240.56;5014580;28;20026;-62
2021/01/29 02:18:02;;;;;;;22.10;13.07;;;;;;;3.05;95.85;97243.06;5013583;28;20130;-62
2021/01/29 02:20:46;;;;;;;20.20;12.67;;;;;;;3.00;95.71;97237.19;5014469;28;20021;-63
2021/01/29 02:23:29;;;;;;;20.47;13.57;;;;;;;3.07;95.81;97226.13;4995998;28;20026;-62
2021/01/29 02:26:13;;;;;;;18.27;11.87;;;;;;;3.02;95.92;97243.06;4995274;28;20045;-63
2021/01/29 02:29:20;;;;;;;19.17;11.53;;;;;;;3.13;96.05;97258.97;4995715;28;20022;-62
2021/01/29 02:32:10;;;;;;;19.70;10.93;;;;;;;3.06;95.43;97252.28;4994245;28;20026;-62
2021/01/29 02:34:58;;;;;;;17.47;11.17;;;;;;;3.01;95.40;97238.88;4999431;28;20046;-63
2021/01/29 02:37:30;;;;;;;22.73;13.47;;;;;;;2.87;96.17;97244.09;5014667;28;20022;-62
2021/01/29 02:40:29;;;;;;;24.40;13.93;;;;;;;3.01;96.38;97237.16;5014801;28;20025;-62
2021/01/29 02:43:15;;;;;;;16.73;11.73;;;;;;;3.01;96.53;97228.75;5010481;28;20406;-63
2021/01/29 02:45:43;;;;;;;18.27;12.07;;;;;;;2.95;95.83;97228.81;5015288;28;20405;-62
2021/01/29 02:48:24;;;;;;;21.00;12.60;;;;;;;3.03;96.39;97234.63;5013845;28;20036;-63
2021/01/29 02:51:01;;;;;;;16.40;9.80;;;;;;;3.05;96.22;97222.81;5014225;28;20332;-62
2021/01/29 02:53:42;;;;;;;14.83;9.57;;;;;;;3.10;96.56;97223.56;5014688;28;20453;-63
2021/01/29 02:56:35;;;;;;;13.10;9.00;;;;;;;3.18;96.57;97220.06;5014955;28;20025;-63
2021/01/29 02:59:46;;;;;;;10.77;7.57;;;;;;;3.22;96.57;97229.31;5015243;28;20029;-63
2021/01/29 03:02:33;;;;;;;11.10;7.60;;;;;;;3.27;95.97;97226.72;5014101;28;20057;-62
2021/01/29 03:05:12;;;;;;;11.93;7.50;;;;;;;3.28;95.98;97230.94;5013807;28;20080;-62
2021/01/29 03:07:53;;;;;;;12.13;7.87;;;;;;;3.26;95.89;97226.75;5014785;28;20069;-63
2021/01/29 03:10:41;;;;;;;11.53;7.30;;;;;;;3.28;95.45;97230.94;5014584;28;20347;-62
2021/01/29 03:13:23;;;;;;;14.10;9.07;;;;;;;3.28;95.98;97217.44;5014965;28;20427;-63
2021/01/29 03:15:58;;;;;;;14.30;7.50;;;;;;;3.29;95.58;97203.91;5014155;28;20409;-64
2021/01/29 03:18:29;;;;;;;9.33;6.70;;;;;;;3.33;95.93;97193.72;5014555;28;20490;-62
2021/01/29 03:21:07;;;;;;;11.80;6.83;;;;;;;3.29;95.94;97199.69;5014750;28;20033;-62
2021/01/29 03:23:43;;;;;;;12.00;7.47;;;;;;;3.29;95.53;97197.16;5014538;28;20025;-62
2021/01/29 03:26:22;;;;;;;10.07;6.10;;;;;;;3.29;95.86;97189.56;5014797;28;20049;-63
2021/01/29 03:28:57;;;;;;;8.13;6.40;;;;;;;3.30;95.76;97196.31;5014484;28;20109;-62
2021/01/29 03:31:25;;;;;;;11.35;6.97;;;;;;;3.23;95.68;97193.00;5014345;28;20050;-62
2021/01/29 03:33:58;;;;;;;10.10;6.17;;;;;;;3.28;96.02;97200.53;5014473;28;20065;-62
2021/01/29 03:36:32;;;;;;;10.63;6.93;;;;;;;3.27;95.94;97193.78;5014703;28;20056;-62
2021/01/29 03:39:16;;;;;;;12.15;7.18;;;;;;;3.27;96.12;97177.78;5014578;28;20056;-62
2021/01/29 03:41:46;;;;;;;11.03;7.10;;;;;;;3.23;96.03;97177.81;5014720;28;20028;-63
2021/01/29 03:44:39;;;;;;;10.73;6.60;;;;;;;3.30;96.35;97175.22;5014165;28;20072;-62
2021/01/29 03:47:13;;;;;;;9.37;6.47;;;;;;;3.26;96.27;97164.28;5014231;28;20103;-62
2021/01/29 03:50:15;;;;;;;7.13;5.17;;;;;;;3.32;95.98;97161.66;5014365;28;20017;-62
2021/01/29 03:52:50;;;;;;;6.53;4.97;;;;;;;3.30;95.93;97158.31;5015045;28;20026;-62
2021/01/29 03:56:06;;;;;;;6.63;5.07;;;;;;;3.31;95.88;97154.09;5014121;28;20021;-62
2021/01/29 03:59:01;;;;;;;7.22;5.13;;;;;;;3.29;95.92;97146.50;4993108;28;20340;-62
2021/01/29 04:01:41;;;;;;;5.65;4.30;;;;;;;3.21;95.95;97128.91;4993251;28;20031;-62
2021/01/29 04:04:27;;;;;;;10.67;6.07;;;;;;;3.27;96.01;97127.16;4995770;28;20429;-62
2021/01/29 04:07:11;;;;;;;8.68;5.75;;;;;;;3.25;95.95;97126.31;4996638;28;20042;-62
2021/01/29 04:09:58;;;;;;;9.80;6.27;;;;;;;3.14;96.42;97121.41;4980022;28;20076;-62
2021/01/29 04:12:53;;;;;;;8.53;6.13;;;;;;;3.10;96.24;97114.69;4996820;28;20502;-62
2021/01/29 04:15:21;;;;;;;8.90;6.40;;;;;;;3.09;96.53;97113.88;4994252;28;20046;-62
2021/01/29 04:18:05;;;;;;;8.50;5.93;;;;;;;3.14;95.91;97111.28;4996266;28;20034;-62
2021/01/29 04:20:44;;;;;;;7.83;5.87;;;;;;;3.11;95.76;97106.25;4979812;28;20046;-62
2021/01/29 04:23:17;;;;;;;10.03;6.53;;;;;;;3.08;96.22;97102.06;4996171;28;20030;-62
2021/01/29 04:25:47;;;;;;;10.03;7.37;;;;;;;2.99;96.25;97097.13;4994947;28;20053;-62
2021/01/29 04:28:18;;;;;;;11.40;6.43;;;;;;;2.90;95.76;97089.66;4995756;28;20041;-62
2021/01/29 04:30:47;;;;;;;10.67;6.40;;;;;;;2.81;96.30;97101.59;4995718;28;20118;-62
2021/01/29 04:33:20;;;;;;;10.27;6.17;;;;;;;2.86;96.45;97115.03;4997636;28;20040;-62
2021/01/29 04:35:47;;;;;;;9.53;6.37;;;;;;;2.74;96.33;97111.81;4997862;28;20050;-62
2021/01/29 04:38:31;;;;;;;11.87;6.40;;;;;;;2.66;96.57;97128.78;4997551;28;20470;-62
2021/01/29 04:41:13;;;;;;;10.60;6.60;;;;;;;2.59;96.14;97118.78;4997727;28;20030;-62
2021/01/29 04:44:03;;;;;;;17.87;9.97;;;;;;;2.60;96.82;97154.16;5012668;28;20089;-62
2021/01/29 04:46:31;;;;;;;12.33;8.10;;;;;;;2.63;96.92;97159.16;5017394;28;20034;-62
2021/01/29 04:49:20;;;;;;;16.90;8.03;;;;;;;2.88;97.69;97157.19;5016938;28;20037;-62
2021/01/29 04:51:58;;;;;;;16.60;8.80;;;;;;;2.94;97.88;97168.91;5016971;28;20026;-62
2021/01/29 04:54:39;;;;;;;14.60;9.50;;;;;;;3.06;98.14;97151.03;5017045;28;20358;-62
2021/01/29 04:57:30;;;;;;;13.50;8.87;;;;;;;3.12;97.60;97146.75;5017167;28;20366;-62
2021/01/29 05:00:20;;;;;;;13.20;9.03;;;;;;;3.30;97.46;97193.78;5015338;28;20034;-63
2021/01/29 05:03:07;;;;;;;12.30;8.33;;;;;;;3.26;97.57;97155.84;5016789;28;20034;-62
2021/01/29 05:06:12;;;;;;;13.27;8.47;;;;;;;3.34;97.71;97157.41;5017071;28;20439;-62
2021/01/29 05:08:51;;;;;;;13.43;8.43;;;;;;;3.32;96.85;97161.66;5012175;28;20475;-62
2021/01/29 05:11:52;;;;;;;15.60;8.97;;;;;;;3.28;97.32;97177.75;5016539;28;20454;-62
2021/01/29 05:14:27;;;;;;;15.00;9.37;;;;;;;3.26;97.09;97191.31;5015672;28;20026;-62
2021/01/29 05:17:27;;;;;;;13.73;8.77;;;;;;;3.36;96.98;97198.75;5016466;28;20030;-62
2021/01/29 05:20:04;;;;;;;12.40;8.57;;;;;;;3.21;96.36;97179.53;5016349;28;20029;-62
2021/01/29 05:22:35;;;;;;;12.80;9.60;;;;;;;3.17;96.61;97182.13;5016896;28;20026;-62
2021/01/29 05:25:25;;;;;;;23.47;17.10;;;;;;;3.15;96.12;97178.78;5016238;28;20057;-62
2021/01/29 05:27:59;;;;;;;15.27;10.20;;;;;;;3.13;96.58;97194.00;5016494;28;20079;-62
2021/01/29 05:30:25;;;;;;;14.13;9.03;;;;;;;3.13;96.36;97188.09;5016061;28;20025;-63
2021/01/29 05:32:53;;;;;;;16.63;11.33;;;;;;;3.07;95.82;97176.34;5016223;28;20520;-62
2021/01/29 05:35:30;;;;;;;15.07;9.53;;;;;;;3.12;95.80;97183.88;5015890;28;20046;-62
2021/01/29 05:38:01;;;;;;;14.33;8.53;;;;;;;3.14;96.14;97177.13;5016067;28;20350;-62
2021/01/29 05:40:45;;;;;;;10.60;7.80;;;;;;;3.16;95.88;97182.97;5015834;28;20104;-63
2021/01/29 05:43:34;;;;;;;11.23;7.80;;;;;;;3.13;95.94;97191.47;5016071;28;20397;-62
2021/01/29 05:46:36;;;;;;;10.03;7.07;;;;;;;3.15;95.74;97183.84;5016280;28;20112;-62
2021/01/29 05:49:44;;;;;;;12.87;7.77;;;;;;;3.13;95.65;97188.94;5015673;28;20029;-62
2021/01/29 05:52:15;;;;;;;12.40;7.87;;;;;;;3.00;95.80;97194.16;4994729;28;20053;-62
2021/01/29 05:55:04;;;;;;;12.23;7.10;;;;;;;3.01;95.71;97189.06;4994418;28;20034;-62
2021/01/29 05:58:14;;;;;;;11.53;7.17;;;;;;;3.18;95.74;97188.88;4994610;28;20340;-63
2021/01/29 06:01:08;;;;;;;16.30;9.13;;;;;;;3.18;94.91;97181.28;4993548;28;20045;-62
2021/01/29 06:03:43;;;;;;;15.17;9.57;;;;;;;3.12;95.03;97183.88;4976507;28;20046;-62
2021/01/29 06:06:46;;;;;;;10.10;7.60;;;;;;;3.11;95.14;97172.06;4991690;28;20022;-62
2021/01/29 06:09:36;;;;;;;10.27;6.90;;;;;;;3.10;94.82;97175.44;4976002;28;20482;-63
2021/01/29 06:12:07;;;;;;;11.83;7.67;;;;;;;3.06;95.14;97179.72;4991209;28;20064;-62
2021/01/29 06:15:03;;;;;;;12.67;8.70;;;;;;;3.18;95.25;97171.16;4994037;28;20030;-63
2021/01/29 06:18:07;;;;;;;14.32;8.93;;;;;;;3.21;94.67;97166.88;4985929;28;20041;-63
2021/01/29 06:21:10;;;;;;;17.27;9.37;;;;;;;3.12;95.05;97177.13;4993252;28;20057;-63
2021/01/29 06:24:12;;;;;;;18.03;10.43;;;;;;;3.10;94.91;97177.97;4994746;28;20058;-63
2021/01/29 06:26:44;;;;;;;17.60;9.97;;;;;;;3.09;94.96;97191.53;4993063;28;20034;-63
2021/01/29 06:29:42;;;;;;;16.67;10.10;;;;;;;3.21;94.99;97194.72;5004332;28;20378;-63
2021/01/29 06:32:13;;;;;;;14.33;9.07;;;;;;;3.24;95.16;97191.31;4982142;28;20503;-63
2021/01/29 06:34:57;;;;;;;17.40;10.47;;;;;;;3.28;95.37;97192.94;5014813;28;20053;-63
2021/01/29 06:37:47;;;;;;;15.13;9.83;;;;;;;3.29;95.02;97183.66;5014086;28;20030;-63
2021/01/29 06:40:20;;;;;;;14.97;8.73;;;;;;;3.21;95.07;97192.19;4995485;28;20057;-62
2021/01/29 06:43:01;;;;;;;13.53;9.70;;;;;;;3.35;94.77;97198.78;5012161;28;20069;-63
2021/01/29 06:45:59;;;;;;;15.00;9.23;;;;;;;3.38;94.68;97191.13;5012894;28;20124;-62
2021/01/29 06:48:48;;;;;;;17.77;11.57;;;;;;;3.36;94.83;97187.75;4951581;29;20089;-62
2021/01/29 06:51:49;;;;;;;14.03;9.67;;;;;;;3.38;94.83;97194.50;4952451;28;20031;-62
2021/01/29 06:54:44;;;;;;;16.27;10.67;;;;;;;3.33;95.01;97196.25;4969642;28;20043;-62
2021/01/29 06:57:25;;;;;;;20.07;14.00;;;;;;;3.31;95.04;97194.63;4971929;28;20030;-63
2021/01/29 07:00:24;;;;;;;17.07;11.07;;;;;;;3.40;94.60;97191.94;4972839;28;20062;-62
2021/01/29 07:03:26;;;;;;;17.37;11.10;;;;;;;3.29;95.35;97204.75;4974699;28;20035;-62
2021/01/29 07:05:54;;;;;;;18.63;11.50;;;;;;;3.33;95.58;97197.94;4974576;28;20062;-62
2021/01/29 07:08:59;;;;;;;18.30;11.30;;;;;;;3.38;95.16;97191.13;4973521;28;20039;-62
2021/01/29 07:12:10;;;;;;;15.07;10.23;;;;;;;3.40;95.33;97182.63;4974146;28;20034;-62
2021/01/29 07:14:55;;;;;;;15.70;10.47;;;;;;;3.43;95.00;97166.59;4958287;28;20043;-62
2021/01/29 07:17:26;;;;;;;14.52;10.38;;;;;;;3.42;95.05;97173.34;4973921;28;20457;-62
2021/01/29 07:20:14;;;;;;;16.93;10.60;;;;;;;3.44;94.73;97183.44;4972220;28;20035;-64
2021/01/29 07:22:45;;;;;;;40.50;19.73;;;;;;;3.37;94.80;97177.63;4947155;29;20050;-63
2021/01/29 07:25:20;;;;;;;25.43;14.23;;;;;;;3.41;94.63;97165.75;4974009;28;20042;-63
2021/01/29 07:27:54;;;;;;;25.73;13.27;;;;;;;3.39;94.83;97165.78;5012990;28;20108;-63
2021/01/29 07:30:25;;;;;;;25.40;14.80;;;;;;;3.30;94.43;97155.78;5013094;28;20594;-66
2021/01/29 07:33:32;;;;;;;24.83;15.90;;;;;;;3.33;94.37;97163.34;5009680;28;20446;-62
2021/01/29 07:36:16;;;;;;;;;;;;;;;3.38;94.14;97141.31;5004502;28;20049;-63
2021/01/29 07:38:59;;;;;;;25.57;13.80;;;;;;;3.23;94.50;97156.72;5016138;28;20405;-63
2021/01/29 07:41:43;;;;;;;25.20;14.17;;;;;;;3.28;95.22;97154.97;5017451;28;20051;-63
2021/01/29 07:44:23;;;;;;;31.17;15.20;;;;;;;3.22;95.62;97150.00;5017678;28;20022;-62
2021/01/29 07:46:49;;;;;;;24.57;14.93;;;;;;;3.26;95.16;97149.09;5017225;28;20122;-63
2021/01/29 07:49:46;;;;;;;27.70;14.87;;;;;;;3.37;95.19;97141.31;5015818;28;20457;-62
2021/01/29 07:52:28;;;;;;;35.23;15.90;;;;;;;3.40;95.29;97146.34;5013799;28;20469;-62
2021/01/29 07:55:01;;;;;;;26.87;14.20;;;;;;;3.35;95.13;97141.38;5035529;28;20068;-62
2021/01/29 07:57:45;;;;;;;23.40;12.97;;;;;;;3.40;95.35;97131.97;5029343;28;20308;-62
2021/01/29 08:00:26;;;;;;;31.33;14.00;;;;;;;3.48;95.10;97129.34;5017527;28;20025;-62
2021/01/29 08:03:22;;;;;;;25.73;14.17;;;;;;;3.41;94.99;97128.59;5016720;28;20026;-62
2021/01/29 08:06:06;;;;;;;33.03;17.07;;;;;;;3.47;95.36;97132.75;5016822;28;20021;-62
2021/01/29 08:08:43;;;;;;;42.23;18.03;;;;;;;3.42;95.37;97134.50;5016386;28;20029;-62
2021/01/29 08:11:09;;;;;;;93.27;32.30;;;;;;;3.43;95.72;97134.50;5017855;28;20061;-62
2021/01/29 08:14:08;;;;;;;104.63;37.27;;;;;;;3.47;95.66;97123.44;5016606;28;20034;-62
2021/01/29 08:16:52;;;;;;;105.53;36.57;;;;;;;3.41;95.43;97115.09;5015660;28;20022;-62
2021/01/29 08:19:49;;;;;;;96.57;35.50;;;;;;;3.52;95.67;97111.53;5009685;28;20032;-62
2021/01/29 08:22:36;;;;;;;75.60;29.37;;;;;;;3.53;95.80;97113.22;4974086;28;20051;-62
2021/01/29 08:25:19;;;;;;;56.20;21.77;;;;;;;3.52;95.82;97106.47;4974881;28;20030;-61
2021/01/29 08:28:30;;;;;;;37.67;17.27;;;;;;;3.62;95.53;97097.84;4975296;28;20472;-62
2021/01/29 08:31:20;;;;;;;25.80;14.67;;;;;;;3.67;95.75;97085.97;4975616;28;20031;-62
2021/01/29 08:34:13;;;;;;;30.33;13.73;;;;;;;3.71;95.53;97090.97;4977200;28;20432;-62
2021/01/29 08:37:03;;;;;;;29.13;13.27;;;;;;;3.62;95.70;97095.31;4974920;28;20062;-61
2021/01/29 08:39:40;;;;;;;26.77;13.80;;;;;;;3.56;95.99;97085.31;4974743;28;20113;-62
2021/01/29 08:42:17;;;;;;;24.23;14.37;;;;;;;3.67;96.07;97085.97;4976286;28;20459;-63
2021/01/29 08:44:54;;;;;;;25.50;15.00;;;;;;;3.69;96.21;97084.22;4974224;28;20379;-61
2021/01/29 08:47:32;;;;;;;23.60;14.07;;;;;;;3.72;96.05;97078.28;4976220;28;20031;-61
2021/01/29 08:50:28;;;;;;;27.03;14.33;;;;;;;3.76;95.60;97067.22;4972381;28;20093;-61
2021/01/29 08:53:15;;;;;;;19.02;11.05;;;;;;;3.78;95.88;97065.47;4975138;28;20065;-61
2021/01/29 08:55:59;;;;;;;21.87;11.60;;;;;;;3.90;95.70;97064.44;4959557;28;20436;-62
2021/01/29 08:58:48;;;;;;;24.17;12.77;;;;;;;3.99;95.55;97059.19;4991371;28;20030;-61
2021/01/29 09:01:28;;;;;;;29.57;16.57;;;;;;;4.05;95.43;97061.63;5015544;28;20104;-62
2021/01/29 09:04:07;;;;;;;29.37;16.77;;;;;;;4.07;95.20;97053.13;5015279;28;20112;-62
2021/01/29 09:06:42;;;;;;;35.23;17.80;;;;;;;4.10;95.29;97055.63;5015372;28;20022;-61
2021/01/29 09:09:16;;;;;;;27.15;16.55;;;;;;;4.19;94.89;97044.47;4999684;28;20038;-61
2021/01/29 09:11:46;;;;;;;56.05;18.58;;;;;;;4.04;94.75;97048.09;5007288;28;20041;-62
2021/01/29 09:14:19;;;;;;;30.50;16.00;;;;;;;4.09;94.65;97050.56;4996972;28;20030;-62
2021/01/29 09:16:47;;;;;;;22.33;13.87;;;;;;;4.04;94.87;97049.81;4999051;28;20033;-62
2021/01/29 09:19:15;;;;;;;21.60;14.17;;;;;;;4.01;94.79;97045.66;5005201;28;20014;-62
2021/01/29 09:21:50;;;;;;;27.70;15.37;;;;;;;4.14;94.61;97036.09;5008003;28;20423;-62
2021/01/29 09:24:24;;;;;;;22.42;13.82;;;;;;;4.21;94.84;97041.88;5008832;28;21222;-62
2021/01/29 09:27:04;;;;;;;25.77;15.97;;;;;;;4.31;94.53;97041.69;5004927;28;20100;-63
2021/01/29 09:29:41;;;;;;;22.63;14.10;;;;;;;4.12;94.40;97032.75;5011645;28;20046;-62
2021/01/29 09:32:15;;;;;;;25.47;15.00;;;;;;;4.18;94.20;97026.72;5014327;28;20053;-62
2021/01/29 09:34:48;;;;;;;24.97;15.13;;;;;;;4.15;94.55;97027.63;4998265;28;20052;-63
2021/01/29 09:37:19;;;;;;;30.37;16.60;;;;;;;4.13;94.41;97031.88;5007261;28;20040;-63
2021/01/29 09:39:57;;;;;;;28.13;15.87;;;;;;;4.11;94.65;97031.94;5013792;28;20355;-62
2021/01/29 09:42:50;;;;;;;32.57;19.33;;;;;;;4.14;94.31;97034.41;5005335;28;20112;-63
2021/01/29 09:45:20;;;;;;;31.33;18.33;;;;;;;4.19;94.07;97015.72;5016451;28;20387;-63
2021/01/29 09:47:48;;;;;;;29.77;17.27;;;;;;;4.04;94.25;97011.78;5014481;28;20377;-63
2021/01/29 09:50:21;;;;;;;27.83;17.17;;;;;;;4.15;94.75;97009.88;5017180;28;20044;-63
2021/01/29 09:52:58;;;;;;;26.83;17.37;;;;;;;4.14;94.37;97010.75;5017735;28;20399;-63
2021/01/29 09:55:52;;;;;;;27.73;17.20;;;;;;;4.18;94.20;97002.22;5010400;28;20100;-63
2021/01/29 09:58:33;;;;;;;27.40;16.63;;;;;;;4.15;93.94;96999.75;5014579;28;20087;-63
2021/01/29 10:01:02;;;;;;;29.00;19.23;;;;;;;4.10;93.99;96997.28;5014544;28;20022;-62
2021/01/29 10:03:54;;;;;;;25.40;17.13;;;;;;;4.20;94.16;96992.03;5015428;28;20026;-63
2021/01/29 10:06:32;;;;;;;27.03;17.73;;;;;;;4.18;93.88;96988.69;5015196;28;20352;-63
2021/01/29 10:09:10;;;;;;;32.63;19.50;;;;;;;4.04;94.13;96968.66;5014117;28;20099;-63
2021/01/29 10:11:47;;;;;;;28.93;17.93;;;;;;;4.12;94.42;96975.25;5014213;28;20359;-63
2021/01/29 10:14:22;;;;;;;31.33;21.03;;;;;;;4.20;94.04;96974.28;5009046;28;20463;-63
2021/01/29 10:16:55;;;;;;;30.20;19.00;;;;;;;4.23;93.29;96964.06;5009970;28;20504;-64
2021/01/29 10:19:30;;;;;;;35.70;19.17;;;;;;;4.28;93.47;96965.66;5013650;28;20523;-63
2021/01/29 10:21:59;;;;;;;32.50;19.03;;;;;;;4.33;93.02;96973.16;5014573;28;20040;-63
2021/01/29 10:24:52;;;;;;;26.97;17.43;;;;;;;4.37;92.89;96973.03;5015007;28;20065;-64
2021/01/29 10:27:24;;;;;;;29.60;18.97;;;;;;;4.38;92.86;96974.72;5013854;28;20054;-63
2021/01/29 10:30:00;;;;;;;27.03;18.37;;;;;;;4.39;93.21;96953.56;5010416;28;20065;-63
2021/01/29 10:32:33;;;;;;;28.23;17.27;;;;;;;4.45;93.07;96958.53;5015003;28;20354;-63
2021/01/29 10:35:07;;;;;;;26.33;17.20;;;;;;;4.38;93.19;96951.06;5013680;28;20069;-63
2021/01/29 10:37:39;;;;;;;19.55;13.57;;;;;;;4.36;93.40;96953.63;5014367;28;20043;-64
2021/01/29 10:40:12;;;;;;;28.87;17.70;;;;;;;4.19;93.75;96959.94;5014017;28;20049;-63
2021/01/29 10:42:43;;;;;;;26.43;16.83;;;;;;;4.25;93.63;96953.00;5013820;28;20048;-63
2021/01/29 10:45:16;;;;;;;22.87;16.07;;;;;;;4.26;93.69;96939.47;5014711;28;20045;-64
2021/01/29 10:48:08;;;;;;;25.00;15.90;;;;;;;4.21;93.57;96932.81;5014313;28;20030;-65
2021/01/29 10:50:45;;;;;;;23.43;15.07;;;;;;;4.15;93.96;96933.81;5012699;28;20033;-64
2021/01/29 10:53:16;;;;;;;30.10;17.10;;;;;;;4.32;93.98;96930.91;5014275;28;20045;-63
2021/01/29 10:55:49;;;;;;;29.10;16.77;;;;;;;4.38;93.79;96936.66;5014318;28;20034;-63
2021/01/29 10:58:28;;;;;;;28.50;16.17;;;;;;;4.45;93.52;96928.06;5012187;28;20092;-63
2021/01/29 11:01:00;;;;;;;26.37;16.37;;;;;;;4.49;92.93;96928.84;5014239;28;20236;-63
2021/01/29 11:03:56;;;;;;;21.63;14.37;;;;;;;4.57;92.87;96921.88;5014248;28;20030;-64
2021/01/29 11:06:27;;;;;;;21.30;14.85;;;;;;;4.43;92.58;96918.81;5010843;28;20092;-63
2021/01/29 11:09:00;;;;;;;21.03;13.60;;;;;;;4.24;92.47;96920.09;5013920;28;20030;-63
2021/01/29 11:11:40;;;;;;;21.67;14.70;;;;;;;4.35;92.53;96916.44;4992995;28;20061;-63
2021/01/29 11:14:24;;;;;;;22.50;14.50;;;;;;;4.50;92.57;96908.47;5012858;28;20034;-63
2021/01/29 11:17:11;;;;;;;20.77;15.40;;;;;;;4.41;92.13;96906.16;5009053;28;20350;-63
2021/01/29 11:19:42;;;;;;;22.90;15.23;;;;;;;4.55;91.46;96919.38;5013413;28;20084;-63
2021/01/29 11:22:14;;;;;;;23.10;15.30;;;;;;;4.66;91.68;96903.91;5012764;28;20025;-63
2021/01/29 11:24:59;;;;;;;22.60;14.47;;;;;;;4.33;90.86;96917.38;5014228;28;20030;-63
2021/01/29 11:27:32;;;;;;;22.67;15.85;;;;;;;4.35;91.58;96905.47;5007278;28;20134;-63
2021/01/29 11:30:05;;;;;;;18.70;13.33;;;;;;;4.30;91.12;96907.25;5013807;28;20030;-62
2021/01/29 11:32:34;;;;;;;21.70;15.97;;;;;;;4.39;90.64;96910.44;5009119;28;20018;-62
2021/01/29 11:35:26;;;;;;;30.47;20.30;;;;;;;4.25;90.30;96920.03;5013111;28;20038;-63
2021/01/29 11:37:55;;;;;;;21.77;15.17;;;;;;;4.23;90.47;96906.56;5012551;28;20037;-61
2021/01/29 11:40:50;;;;;;;25.13;17.03;;;;;;;4.30;90.57;96913.19;5013523;28;20466;-63
2021/01/29 11:43:42;;;;;;;29.42;20.75;;;;;;;4.27;90.60;96915.78;5013828;28;20315;-63
2021/01/29 11:46:30;;;;;;;29.70;18.00;;;;;;;4.30;90.61;96905.56;5012605;28;20030;-63
2021/01/29 11:49:08;;;;;;;30.97;19.60;;;;;;;4.31;91.50;96888.66;5008058;28;20041;-63
2021/01/29 11:52:08;;;;;;;25.53;17.57;;;;;;;4.32;91.32;96898.78;5013782;28;20054;-62
2021/01/29 11:54:48;;;;;;;27.77;17.87;;;;;;;4.36;90.99;96907.97;5013663;28;20101;-63
2021/01/29 11:57:43;;;;;;;25.93;18.40;;;;;;;4.47;91.20;96885.72;5010539;28;20045;-62
2021/01/29 12:00:20;;;;;;;23.53;16.00;;;;;;;4.50;91.53;96882.28;5007266;28;20033;-62
2021/01/29 12:03:17;;;;;;;25.93;17.07;;;;;;;4.58;91.79;96858.38;5012802;28;20091;-61
2021/01/29 12:06:18;;;;;;;25.73;17.67;;;;;;;4.66;91.26;96870.91;5013071;28;20116;-64
2021/01/29 12:09:00;;;;;;;30.50;18.47;;;;;;;4.68;91.46;96832.78;5009474;28;20415;-62
2021/01/29 12:11:48;;;;;;;24.27;16.73;;;;;;;4.72;90.67;96858.06;5013779;28;20123;-62
2021/01/29 12:14:29;;;;;;;23.07;18.17;;;;;;;4.63;90.83;96844.75;5012794;28;20037;-62
2021/01/29 12:16:58;;;;;;;29.57;17.83;;;;;;;4.74;90.70;96835.19;5012461;28;20022;-62
2021/01/29 12:19:33;;;;;;;26.37;17.37;;;;;;;4.83;90.75;96837.50;5013460;28;20105;-62
2021/01/29 12:22:35;;;;;;;24.13;17.38;;;;;;;5.04;90.85;96817.47;5012699;28;20018;-63
2021/01/29 12:25:16;;;;;;;26.90;17.93;;;;;;;5.13;90.42;96811.31;4971270;28;20460;-62
2021/01/29 12:27:48;;;;;;;26.37;17.47;;;;;;;5.26;89.22;96810.09;4975843;28;20041;-63